sensor_id;sensor_type;location;lat;lon;timestamp;pressure;altitude;pressure_sealevel;temperature;humidity
68329;BME280;55182;56.864;60.554;2023-12-28T00:00:51;74873.03;;;-143.60;93.77
68329;BME280;55182;56.864;60.554;2023-12-28T00:03:17;74879.06;;;-143.60;94.00
68329;BME280;55182;56.864;60.554;2023-12-28T00:05:43;74881.06;;;-143.60;93.94
68329;BME280;55182;56.864;60.554;2023-12-28T00:08:08;74879.06;;;-143.60;94.16
68329;BME280;55182;56.864;60.554;2023-12-28T00:10:34;74891.13;;;-143.60;94.36
68329;BME280;55182;56.864;60.554;2023-12-28T00:13:00;74893.13;;;-143.60;94.47
68329;BME280;55182;56.864;60.554;2023-12-28T00:15:25;74899.16;;;-143.60;94.73
68329;BME280;55182;56.864;60.554;2023-12-28T00:17:51;74901.16;;;-143.60;94.86
68329;BME280;55182;56.864;60.554;2023-12-28T00:20:16;74893.13;;;-143.60;94.99
68329;BME280;55182;56.864;60.554;2023-12-28T00:22:42;74897.16;;;-143.60;95.16
68329;BME280;55182;56.864;60.554;2023-12-28T00:25:07;74893.13;;;-143.60;95.06
68329;BME280;55182;56.864;60.554;2023-12-28T00:27:33;74897.16;;;-143.60;95.24
68329;BME280;55182;56.864;60.554;2023-12-28T00:29:59;74893.13;;;-143.60;95.41
68329;BME280;55182;56.864;60.554;2023-12-28T00:32:24;74889.09;;;-143.60;95.61
68329;BME280;55182;56.864;60.554;2023-12-28T00:34:50;74889.09;;;-143.60;95.69
68329;BME280;55182;56.864;60.554;2023-12-28T00:37:15;74895.13;;;-143.60;96.02
68329;BME280;55182;56.864;60.554;2023-12-28T00:39:41;74887.09;;;-143.60;96.03
68329;BME280;55182;56.864;60.554;2023-12-28T00:42:06;74885.09;;;-143.60;95.97
68329;BME280;55182;56.864;60.554;2023-12-28T00:44:32;74881.06;;;-143.60;96.02
68329;BME280;55182;56.864;60.554;2023-12-28T00:46:57;74877.06;;;-143.60;96.01
68329;BME280;55182;56.864;60.554;2023-12-28T00:49:23;74873.03;;;-143.60;95.74
68329;BME280;55182;56.864;60.554;2023-12-28T00:51:48;74875.03;;;-143.60;95.54
68329;BME280;55182;56.864;60.554;2023-12-28T00:54:14;74869.03;;;-143.60;95.23
68329;BME280;55182;56.864;60.554;2023-12-28T00:56:39;74867.00;;;-143.60;95.04
68329;BME280;55182;56.864;60.554;2023-12-28T00:59:05;74867.00;;;-143.60;94.94
68329;BME280;55182;56.864;60.554;2023-12-28T01:01:31;74869.03;;;-143.60;94.56
68329;BME280;55182;56.864;60.554;2023-12-28T01:03:56;74871.03;;;-143.60;94.25
68329;BME280;55182;56.864;60.554;2023-12-28T01:06:22;74875.03;;;-143.60;94.13
68329;BME280;55182;56.864;60.554;2023-12-28T01:08:49;74873.03;;;-143.60;94.04
68329;BME280;55182;56.864;60.554;2023-12-28T01:11:15;74871.03;;;-143.60;93.80
68329;BME280;55182;56.864;60.554;2023-12-28T01:13:41;74875.03;;;-143.60;94.06
68329;BME280;55182;56.864;60.554;2023-12-28T01:16:06;74877.06;;;-143.60;94.04
68329;BME280;55182;56.864;60.554;2023-12-28T01:18:32;74879.06;;;-143.60;94.16
68329;BME280;55182;56.864;60.554;2023-12-28T01:20:58;74883.09;;;-143.60;94.11
68329;BME280;55182;56.864;60.554;2023-12-28T01:23:23;74885.09;;;-143.60;94.42
68329;BME280;55182;56.864;60.554;2023-12-28T01:25:49;74889.09;;;-143.60;94.62
68329;BME280;55182;56.864;60.554;2023-12-28T01:28:14;74893.13;;;-143.60;94.82
68329;BME280;55182;56.864;60.554;2023-12-28T01:30:41;74897.16;;;-143.60;94.93
68329;BME280;55182;56.864;60.554;2023-12-28T01:33:06;74895.13;;;-143.60;95.41
68329;BME280;55182;56.864;60.554;2023-12-28T01:35:32;74893.13;;;-143.60;95.60
68329;BME280;55182;56.864;60.554;2023-12-28T01:37:57;74889.09;;;-143.60;95.82
68329;BME280;55182;56.864;60.554;2023-12-28T01:40:23;74889.09;;;-143.60;95.96
68329;BME280;55182;56.864;60.554;2023-12-28T01:42:48;74885.09;;;-143.60;96.13
68329;BME280;55182;56.864;60.554;2023-12-28T01:45:14;74877.06;;;-143.60;96.20
68329;BME280;55182;56.864;60.554;2023-12-28T01:47:39;74881.06;;;-143.60;96.36
68329;BME280;55182;56.864;60.554;2023-12-28T01:50:06;74873.03;;;-143.60;96.35
68329;BME280;55182;56.864;60.554;2023-12-28T01:52:32;74869.03;;;-143.60;96.47
68329;BME280;55182;56.864;60.554;2023-12-28T01:54:58;74869.03;;;-143.60;96.58
68329;BME280;55182;56.864;60.554;2023-12-28T01:57:24;74877.06;;;-143.60;96.51
68329;BME280;55182;56.864;60.554;2023-12-28T01:59:50;74875.03;;;-143.60;96.31
68329;BME280;55182;56.864;60.554;2023-12-28T02:02:16;74869.03;;;-143.60;96.46
68329;BME280;55182;56.864;60.554;2023-12-28T02:04:42;74873.03;;;-143.60;96.53
68329;BME280;55182;56.864;60.554;2023-12-28T02:07:08;74873.03;;;-143.60;96.36
68329;BME280;55182;56.864;60.554;2023-12-28T02:09:34;74877.06;;;-143.60;96.57
68329;BME280;55182;56.864;60.554;2023-12-28T02:11:59;74873.03;;;-143.60;96.71
68329;BME280;55182;56.864;60.554;2023-12-28T02:14:25;74873.03;;;-143.60;96.59
68329;BME280;55182;56.864;60.554;2023-12-28T02:17:37;74865.00;;;-143.60;96.54
68329;BME280;55182;56.864;60.554;2023-12-28T02:19:42;74871.03;;;-143.60;96.74
68329;BME280;55182;56.864;60.554;2023-12-28T02:22:09;74863.00;;;-143.60;96.97
68329;BME280;55182;56.864;60.554;2023-12-28T02:27:20;74869.03;;;-143.60;96.93
68329;BME280;55182;56.864;60.554;2023-12-28T02:29:46;74867.00;;;-143.60;97.02
68329;BME280;55182;56.864;60.554;2023-12-28T02:32:11;74863.00;;;-143.60;97.13
68329;BME280;55182;56.864;60.554;2023-12-28T02:34:37;74860.97;;;-143.60;97.04
68329;BME280;55182;56.864;60.554;2023-12-28T02:37:06;74860.97;;;-143.60;96.94
68329;BME280;55182;56.864;60.554;2023-12-28T02:39:32;74867.00;;;-143.60;96.77
68329;BME280;55182;56.864;60.554;2023-12-28T02:41:57;74869.03;;;-143.60;96.69
68329;BME280;55182;56.864;60.554;2023-12-28T02:44:24;74873.03;;;-143.60;97.04
68329;BME280;55182;56.864;60.554;2023-12-28T02:46:50;74875.03;;;-143.60;96.99
68329;BME280;55182;56.864;60.554;2023-12-28T02:49:15;74873.03;;;-143.60;96.78
68329;BME280;55182;56.864;60.554;2023-12-28T02:51:41;74869.03;;;-143.60;96.61
68329;BME280;55182;56.864;60.554;2023-12-28T02:54:06;74873.03;;;-143.60;96.43
68329;BME280;55182;56.864;60.554;2023-12-28T02:56:32;74881.06;;;-143.60;96.22
68329;BME280;55182;56.864;60.554;2023-12-28T02:58:57;74877.06;;;-143.60;96.20
68329;BME280;55182;56.864;60.554;2023-12-28T03:01:23;74881.06;;;-143.60;95.94
68329;BME280;55182;56.864;60.554;2023-12-28T03:03:49;74883.09;;;-143.60;95.83
68329;BME280;55182;56.864;60.554;2023-12-28T03:06:15;74877.06;;;-143.60;96.00
68329;BME280;55182;56.864;60.554;2023-12-28T03:08:41;74881.06;;;-143.60;95.81
68329;BME280;55182;56.864;60.554;2023-12-28T03:11:06;74885.09;;;-143.60;95.60
68329;BME280;55182;56.864;60.554;2023-12-28T03:13:32;74881.06;;;-143.60;95.36
68329;BME280;55182;56.864;60.554;2023-12-28T03:15:58;74877.06;;;-143.60;95.21
68329;BME280;55182;56.864;60.554;2023-12-28T03:18:23;74877.06;;;-143.60;95.20
68329;BME280;55182;56.864;60.554;2023-12-28T03:20:49;74877.06;;;-143.60;95.12
68329;BME280;55182;56.864;60.554;2023-12-28T03:23:14;74881.06;;;-143.60;94.79
68329;BME280;55182;56.864;60.554;2023-12-28T03:25:40;74869.03;;;-143.60;94.24
68329;BME280;55182;56.864;60.554;2023-12-28T03:28:06;74881.06;;;-143.60;94.33
68329;BME280;55182;56.864;60.554;2023-12-28T03:30:32;74881.06;;;-143.60;93.74
68329;BME280;55182;56.864;60.554;2023-12-28T03:32:58;74877.06;;;-143.60;93.66
68329;BME280;55182;56.864;60.554;2023-12-28T03:35:24;74881.06;;;-143.60;93.33
68329;BME280;55182;56.864;60.554;2023-12-28T03:37:50;74885.09;;;-143.60;93.20
68329;BME280;55182;56.864;60.554;2023-12-28T03:40:15;74881.06;;;-143.60;93.19
68329;BME280;55182;56.864;60.554;2023-12-28T03:42:41;74889.09;;;-143.60;93.22
68329;BME280;55182;56.864;60.554;2023-12-28T03:45:06;74887.09;;;-143.60;93.11
68329;BME280;55182;56.864;60.554;2023-12-28T03:47:32;74887.09;;;-143.60;93.08
68329;BME280;55182;56.864;60.554;2023-12-28T03:49:58;74889.09;;;-143.60;93.12
68329;BME280;55182;56.864;60.554;2023-12-28T03:52:26;74891.13;;;-143.60;93.42
68329;BME280;55182;56.864;60.554;2023-12-28T03:54:51;74885.09;;;-143.60;93.57
68329;BME280;55182;56.864;60.554;2023-12-28T03:57:18;74889.09;;;-143.60;93.70
68329;BME280;55182;56.864;60.554;2023-12-28T03:59:43;74889.09;;;-143.60;93.81
68329;BME280;55182;56.864;60.554;2023-12-28T04:02:09;74897.16;;;-143.60;94.09
68329;BME280;55182;56.864;60.554;2023-12-28T04:04:34;74897.16;;;-143.60;94.07
68329;BME280;55182;56.864;60.554;2023-12-28T04:07:00;74895.13;;;-143.60;94.36
68329;BME280;55182;56.864;60.554;2023-12-28T04:09:25;74889.09;;;-143.60;94.24
68329;BME280;55182;56.864;60.554;2023-12-28T04:11:51;74889.09;;;-143.60;94.32
68329;BME280;55182;56.864;60.554;2023-12-28T04:14:17;74885.09;;;-143.60;94.36
68329;BME280;55182;56.864;60.554;2023-12-28T04:16:42;74887.09;;;-143.60;94.35
68329;BME280;55182;56.864;60.554;2023-12-28T04:19:08;74889.09;;;-143.60;94.57
68329;BME280;55182;56.864;60.554;2023-12-28T04:21:33;74885.09;;;-143.60;94.41
68329;BME280;55182;56.864;60.554;2023-12-28T04:23:59;74885.09;;;-143.60;94.46
68329;BME280;55182;56.864;60.554;2023-12-28T04:26:25;74883.09;;;-143.60;94.72
68329;BME280;55182;56.864;60.554;2023-12-28T04:28:51;74877.06;;;-143.60;94.68
68329;BME280;55182;56.864;60.554;2023-12-28T04:31:16;74873.03;;;-143.60;94.72
68329;BME280;55182;56.864;60.554;2023-12-28T04:33:43;74873.03;;;-143.60;94.63
68329;BME280;55182;56.864;60.554;2023-12-28T04:36:09;74869.03;;;-143.60;94.66
68329;BME280;55182;56.864;60.554;2023-12-28T04:38:35;74865.00;;;-143.60;94.49
68329;BME280;55182;56.864;60.554;2023-12-28T04:41:00;74860.97;;;-143.60;94.57
68329;BME280;55182;56.864;60.554;2023-12-28T04:43:26;74856.97;;;-143.60;94.35
68329;BME280;55182;56.864;60.554;2023-12-28T04:45:52;74867.00;;;-143.60;94.24
68329;BME280;55182;56.864;60.554;2023-12-28T04:48:17;74858.97;;;-143.60;94.19
68329;BME280;55182;56.864;60.554;2023-12-28T04:50:44;74860.97;;;-143.60;93.88
68329;BME280;55182;56.864;60.554;2023-12-28T04:53:11;74860.97;;;-143.60;93.93
68329;BME280;55182;56.864;60.554;2023-12-28T04:55:37;74854.97;;;-143.60;93.61
68329;BME280;55182;56.864;60.554;2023-12-28T04:58:03;74852.94;;;-143.60;93.43
68329;BME280;55182;56.864;60.554;2023-12-28T05:00:28;74854.97;;;-143.60;93.12
68329;BME280;55182;56.864;60.554;2023-12-28T05:02:54;74856.97;;;-143.60;92.99
68329;BME280;55182;56.864;60.554;2023-12-28T05:05:19;74854.97;;;-143.60;92.78
68329;BME280;55182;56.864;60.554;2023-12-28T05:07:46;74856.97;;;-143.60;92.71
68329;BME280;55182;56.864;60.554;2023-12-28T05:10:12;74860.97;;;-143.60;92.78
68329;BME280;55182;56.864;60.554;2023-12-28T05:12:37;74865.00;;;-143.60;92.96
68329;BME280;55182;56.864;60.554;2023-12-28T05:15:03;74865.00;;;-143.60;93.04
68329;BME280;55182;56.864;60.554;2023-12-28T05:17:28;74865.00;;;-143.60;93.10
68329;BME280;55182;56.864;60.554;2023-12-28T05:19:54;74867.00;;;-143.60;93.17
68329;BME280;55182;56.864;60.554;2023-12-28T05:22:20;74867.00;;;-143.60;93.07
68329;BME280;55182;56.864;60.554;2023-12-28T05:24:45;74871.03;;;-143.60;93.24
68329;BME280;55182;56.864;60.554;2023-12-28T05:27:11;74865.00;;;-143.60;93.09
68329;BME280;55182;56.864;60.554;2023-12-28T05:29:36;74863.00;;;-143.60;93.05
68329;BME280;55182;56.864;60.554;2023-12-28T05:32:02;74856.97;;;-143.60;92.99
68329;BME280;55182;56.864;60.554;2023-12-28T05:34:27;74844.91;;;-143.60;92.88
68329;BME280;55182;56.864;60.554;2023-12-28T05:36:53;74838.88;;;-143.60;93.06
68329;BME280;55182;56.864;60.554;2023-12-28T05:39:18;74834.88;;;-143.60;92.66
68329;BME280;55182;56.864;60.554;2023-12-28T05:41:43;74824.81;;;-143.60;92.61
68329;BME280;55182;56.864;60.554;2023-12-28T05:44:09;74814.78;;;-143.60;92.54
68329;BME280;55182;56.864;60.554;2023-12-28T05:46:34;74804.75;;;-143.60;92.50
68329;BME280;55182;56.864;60.554;2023-12-28T05:49:00;74790.69;;;-143.60;92.23
68329;BME280;55182;56.864;60.554;2023-12-28T05:51:26;74788.66;;;-143.60;91.99
68329;BME280;55182;56.864;60.554;2023-12-28T05:53:51;74778.63;;;-143.60;91.43
68329;BME280;55182;56.864;60.554;2023-12-28T05:56:17;74778.63;;;-143.60;91.43
68329;BME280;55182;56.864;60.554;2023-12-28T05:58:42;74766.56;;;-143.60;91.12
68329;BME280;55182;56.864;60.554;2023-12-28T06:01:08;74758.53;;;-143.60;91.08
68329;BME280;55182;56.864;60.554;2023-12-28T06:03:33;74756.53;;;-143.60;90.76
68329;BME280;55182;56.864;60.554;2023-12-28T06:05:59;74752.50;;;-143.60;90.66
68329;BME280;55182;56.864;60.554;2023-12-28T06:08:24;74752.50;;;-143.60;90.18
68329;BME280;55182;56.864;60.554;2023-12-28T06:10:50;74738.44;;;-143.60;90.05
68329;BME280;55182;56.864;60.554;2023-12-28T06:13:16;74732.41;;;-143.60;89.92
68329;BME280;55182;56.864;60.554;2023-12-28T06:15:41;74726.41;;;-143.60;90.01
68329;BME280;55182;56.864;60.554;2023-12-28T06:18:07;74730.41;;;-143.60;89.53
68329;BME280;55182;56.864;60.554;2023-12-28T06:20:33;74732.41;;;-143.60;89.15
68329;BME280;55182;56.864;60.554;2023-12-28T06:22:58;74722.38;;;-143.60;89.19
68329;BME280;55182;56.864;60.554;2023-12-28T06:25:24;74724.38;;;-143.60;89.38
68329;BME280;55182;56.864;60.554;2023-12-28T06:27:49;74728.41;;;-143.60;88.98
68329;BME280;55182;56.864;60.554;2023-12-28T06:30:15;74732.41;;;-143.60;89.18
68329;BME280;55182;56.864;60.554;2023-12-28T06:32:40;74728.41;;;-143.60;89.47
68329;BME280;55182;56.864;60.554;2023-12-28T06:35:06;74732.41;;;-143.60;89.38
68329;BME280;55182;56.864;60.554;2023-12-28T06:37:32;74738.44;;;-143.60;89.41
68329;BME280;55182;56.864;60.554;2023-12-28T06:39:57;74740.47;;;-143.60;89.17
68329;BME280;55182;56.864;60.554;2023-12-28T06:42:23;74742.47;;;-143.60;88.85
68329;BME280;55182;56.864;60.554;2023-12-28T06:44:48;74746.47;;;-143.60;88.93
68329;BME280;55182;56.864;60.554;2023-12-28T06:47:14;74738.44;;;-143.60;89.09
68329;BME280;55182;56.864;60.554;2023-12-28T06:49:39;74732.41;;;-143.60;89.02
68329;BME280;55182;56.864;60.554;2023-12-28T06:52:05;74726.41;;;-143.60;88.81
68329;BME280;55182;56.864;60.554;2023-12-28T06:54:30;74724.38;;;-143.60;88.27
68329;BME280;55182;56.864;60.554;2023-12-28T06:56:56;74732.41;;;-143.60;88.01
68329;BME280;55182;56.864;60.554;2023-12-28T06:59:21;74732.41;;;-143.60;88.18
68329;BME280;55182;56.864;60.554;2023-12-28T07:01:47;74738.44;;;-143.60;88.43
68329;BME280;55182;56.864;60.554;2023-12-28T07:04:12;74734.44;;;-143.60;88.35
68329;BME280;55182;56.864;60.554;2023-12-28T07:06:38;74740.47;;;-143.60;88.32
68329;BME280;55182;56.864;60.554;2023-12-28T07:09:03;74742.47;;;-143.60;87.90
68329;BME280;55182;56.864;60.554;2023-12-28T07:11:28;74750.50;;;-143.60;88.22
68329;BME280;55182;56.864;60.554;2023-12-28T07:13:54;74748.50;;;-143.60;88.17
68329;BME280;55182;56.864;60.554;2023-12-28T07:16:19;74744.47;;;-143.60;88.18
68329;BME280;55182;56.864;60.554;2023-12-28T07:18:45;74744.47;;;-143.60;88.30
68329;BME280;55182;56.864;60.554;2023-12-28T07:21:10;74738.44;;;-143.60;88.48
68329;BME280;55182;56.864;60.554;2023-12-28T07:23:36;74736.44;;;-143.60;88.48
68329;BME280;55182;56.864;60.554;2023-12-28T07:26:02;74736.44;;;-143.60;88.31
68329;BME280;55182;56.864;60.554;2023-12-28T07:28:28;74728.41;;;-143.60;88.45
68329;BME280;55182;56.864;60.554;2023-12-28T07:30:53;74724.38;;;-143.60;88.84
68329;BME280;55182;56.864;60.554;2023-12-28T07:33:19;74722.38;;;-143.60;89.00
68329;BME280;55182;56.864;60.554;2023-12-28T07:35:45;74712.34;;;-143.60;89.14
68329;BME280;55182;56.864;60.554;2023-12-28T07:38:10;74708.31;;;-143.60;89.20
68329;BME280;55182;56.864;60.554;2023-12-28T07:40:36;74700.28;;;-143.60;89.28
68329;BME280;55182;56.864;60.554;2023-12-28T07:43:01;74696.25;;;-143.60;89.18
68329;BME280;55182;56.864;60.554;2023-12-28T07:45:27;74696.25;;;-143.60;89.61
68329;BME280;55182;56.864;60.554;2023-12-28T07:47:53;74688.22;;;-143.60;89.43
68329;BME280;55182;56.864;60.554;2023-12-28T07:50:18;74682.19;;;-143.60;88.89
68329;BME280;55182;56.864;60.554;2023-12-28T07:52:44;74676.19;;;-143.60;88.79
68329;BME280;55182;56.864;60.554;2023-12-28T07:55:10;74660.09;;;-143.60;89.14
68329;BME280;55182;56.864;60.554;2023-12-28T07:57:35;74656.09;;;-143.60;89.04
68329;BME280;55182;56.864;60.554;2023-12-28T08:00:01;74654.06;;;-143.60;89.15
68329;BME280;55182;56.864;60.554;2023-12-28T08:02:29;74648.06;;;-143.60;88.92
68329;BME280;55182;56.864;60.554;2023-12-28T08:04:55;74636.00;;;-143.60;88.91
68329;BME280;55182;56.864;60.554;2023-12-28T08:07:20;74627.97;;;-143.60;88.43
68329;BME280;55182;56.864;60.554;2023-12-28T08:09:46;74627.97;;;-143.60;87.84
68329;BME280;55182;56.864;60.554;2023-12-28T08:12:11;74625.97;;;-143.60;87.71
68329;BME280;55182;56.864;60.554;2023-12-28T08:14:37;74611.91;;;-143.60;87.90
68329;BME280;55182;56.864;60.554;2023-12-28T08:17:02;74607.88;;;-143.60;87.61
68329;BME280;55182;56.864;60.554;2023-12-28T08:19:28;74607.88;;;-143.60;87.04
68329;BME280;55182;56.864;60.554;2023-12-28T08:21:53;74611.91;;;-143.60;86.86
68329;BME280;55182;56.864;60.554;2023-12-28T08:24:19;74599.84;;;-143.60;86.39
68329;BME280;55182;56.864;60.554;2023-12-28T08:26:44;74595.81;;;-143.60;86.39
68329;BME280;55182;56.864;60.554;2023-12-28T08:29:10;74583.78;;;-143.60;86.52
68329;BME280;55182;56.864;60.554;2023-12-28T08:31:35;74593.81;;;-143.60;86.42
68329;BME280;55182;56.864;60.554;2023-12-28T08:34:01;74595.81;;;-143.60;86.12
68329;BME280;55182;56.864;60.554;2023-12-28T08:36:26;74595.81;;;-143.60;86.01
68329;BME280;55182;56.864;60.554;2023-12-28T08:38:52;74599.84;;;-143.60;86.17
68329;BME280;55182;56.864;60.554;2023-12-28T08:41:18;74595.81;;;-143.60;86.49
68329;BME280;55182;56.864;60.554;2023-12-28T08:43:44;74603.84;;;-143.60;86.33
68329;BME280;55182;56.864;60.554;2023-12-28T08:46:10;74601.84;;;-143.60;86.65
68329;BME280;55182;56.864;60.554;2023-12-28T08:48:35;74603.84;;;-143.60;86.65
68329;BME280;55182;56.864;60.554;2023-12-28T08:51:01;74607.88;;;-143.60;86.91
68329;BME280;55182;56.864;60.554;2023-12-28T08:53:26;74605.88;;;-143.60;87.12
68329;BME280;55182;56.864;60.554;2023-12-28T08:55:52;74607.88;;;-143.60;87.05
68329;BME280;55182;56.864;60.554;2023-12-28T08:58:18;74603.84;;;-143.60;86.45
68329;BME280;55182;56.864;60.554;2023-12-28T09:00:43;74601.84;;;-143.60;86.74
68329;BME280;55182;56.864;60.554;2023-12-28T09:03:09;74595.81;;;-143.60;86.97
68329;BME280;55182;56.864;60.554;2023-12-28T09:05:34;74589.81;;;-143.60;86.11
68329;BME280;55182;56.864;60.554;2023-12-28T09:08:00;74583.78;;;-143.60;86.06
68329;BME280;55182;56.864;60.554;2023-12-28T09:10:25;74583.78;;;-143.60;85.48
68329;BME280;55182;56.864;60.554;2023-12-28T09:12:51;74593.81;;;-143.60;84.38
68329;BME280;55182;56.864;60.554;2023-12-28T09:15:16;74599.84;;;-143.60;84.00
68329;BME280;55182;56.864;60.554;2023-12-28T09:17:42;74615.91;;;-143.60;84.34
68329;BME280;55182;56.864;60.554;2023-12-28T09:20:07;74615.91;;;-143.60;84.63
68329;BME280;55182;56.864;60.554;2023-12-28T09:22:33;74629.97;;;-143.60;84.61
68329;BME280;55182;56.864;60.554;2023-12-28T09:24:59;74638.00;;;-143.60;84.64
68329;BME280;55182;56.864;60.554;2023-12-28T09:27:25;74646.03;;;-143.60;85.13
68329;BME280;55182;56.864;60.554;2023-12-28T09:29:50;74652.06;;;-143.60;85.08
68329;BME280;55182;56.864;60.554;2023-12-28T09:32:16;74650.06;;;-143.60;85.91
68329;BME280;55182;56.864;60.554;2023-12-28T09:34:41;74656.09;;;-143.60;87.21
68329;BME280;55182;56.864;60.554;2023-12-28T09:37:07;74648.06;;;-143.60;87.25
68329;BME280;55182;56.864;60.554;2023-12-28T09:39:32;74648.06;;;-143.60;87.56
68329;BME280;55182;56.864;60.554;2023-12-28T09:42:04;74640.03;;;-143.60;87.60
68329;BME280;55182;56.864;60.554;2023-12-28T09:44:32;74640.03;;;-143.60;87.04
68329;BME280;55182;56.864;60.554;2023-12-28T09:46:57;74627.97;;;-143.60;86.79
68329;BME280;55182;56.864;60.554;2023-12-28T09:49:23;74627.97;;;-143.60;86.99
68329;BME280;55182;56.864;60.554;2023-12-28T09:51:48;74631.97;;;-143.60;87.51
68329;BME280;55182;56.864;60.554;2023-12-28T09:54:14;74627.97;;;-143.60;87.93
68329;BME280;55182;56.864;60.554;2023-12-28T09:56:39;74631.97;;;-143.60;88.34
68329;BME280;55182;56.864;60.554;2023-12-28T09:59:05;74638.00;;;-143.60;88.68
68329;BME280;55182;56.864;60.554;2023-12-28T10:01:31;74642.03;;;-143.60;89.17
68329;BME280;55182;56.864;60.554;2023-12-28T10:03:57;74664.13;;;-143.60;89.90
68329;BME280;55182;56.864;60.554;2023-12-28T10:06:26;74672.16;;;-143.60;90.52
68329;BME280;55182;56.864;60.554;2023-12-28T10:08:51;74676.19;;;-143.60;91.04
68329;BME280;55182;56.864;60.554;2023-12-28T10:11:17;74680.19;;;-143.60;91.18
68329;BME280;55182;56.864;60.554;2023-12-28T10:13:43;74692.25;;;-143.60;91.23
68329;BME280;55182;56.864;60.554;2023-12-28T10:16:09;74700.28;;;-143.60;91.26
68329;BME280;55182;56.864;60.554;2023-12-28T10:18:34;74700.28;;;-143.60;91.35
68329;BME280;55182;56.864;60.554;2023-12-28T10:21:00;74706.31;;;-143.60;91.30
68329;BME280;55182;56.864;60.554;2023-12-28T10:23:25;74718.34;;;-143.60;91.45
68329;BME280;55182;56.864;60.554;2023-12-28T10:25:51;74738.44;;;-143.60;91.81
68329;BME280;55182;56.864;60.554;2023-12-28T10:28:17;74752.50;;;-143.60;92.51
68329;BME280;55182;56.864;60.554;2023-12-28T10:30:42;74756.53;;;-143.60;93.01
68329;BME280;55182;56.864;60.554;2023-12-28T10:33:08;74756.53;;;-143.60;93.27
68329;BME280;55182;56.864;60.554;2023-12-28T10:35:33;74770.59;;;-143.60;93.35
68329;BME280;55182;56.864;60.554;2023-12-28T10:38:02;74788.66;;;-143.60;93.36
68329;BME280;55182;56.864;60.554;2023-12-28T10:40:30;74806.75;;;-143.60;93.32
68329;BME280;55182;56.864;60.554;2023-12-28T10:42:59;74816.78;;;-143.60;93.29
68329;BME280;55182;56.864;60.554;2023-12-28T10:45:25;74836.88;;;-143.60;93.08
68329;BME280;55182;56.864;60.554;2023-12-28T10:50:24;74850.94;;;-143.60;93.48
68329;BME280;55182;56.864;60.554;2023-12-28T10:52:53;74860.97;;;-143.60;93.61
68329;BME280;55182;56.864;60.554;2023-12-28T11:00:30;74865.00;;;-143.60;95.09
68329;BME280;55182;56.864;60.554;2023-12-28T11:03:01;74865.00;;;-143.60;95.79
68329;BME280;55182;56.864;60.554;2023-12-28T11:05:27;74863.00;;;-143.60;96.20
68329;BME280;55182;56.864;60.554;2023-12-28T11:07:54;74852.94;;;-143.60;96.87
68329;BME280;55182;56.864;60.554;2023-12-28T11:10:21;74846.91;;;-143.60;96.70
68329;BME280;55182;56.864;60.554;2023-12-28T11:12:49;74865.00;;;-143.60;95.91
68329;BME280;55182;56.864;60.554;2023-12-28T11:15:16;74854.97;;;-143.60;95.62
68329;BME280;55182;56.864;60.554;2023-12-28T11:17:43;74852.94;;;-143.60;95.50
68329;BME280;55182;56.864;60.554;2023-12-28T11:20:08;74838.88;;;-143.60;95.34
68329;BME280;55182;56.864;60.554;2023-12-28T11:22:34;74816.78;;;-143.60;95.44
68329;BME280;55182;56.864;60.554;2023-12-28T11:25:01;74784.66;;;-143.60;96.12
68329;BME280;55182;56.864;60.554;2023-12-28T11:27:34;74750.50;;;-143.60;96.36
68329;BME280;55182;56.864;60.554;2023-12-28T11:30:00;74724.38;;;-143.60;96.29
68329;BME280;55182;56.864;60.554;2023-12-28T11:32:26;74720.38;;;-143.60;95.87
68329;BME280;55182;56.864;60.554;2023-12-28T11:34:57;74710.31;;;-143.60;95.67
68329;BME280;55182;56.864;60.554;2023-12-28T11:37:23;74700.28;;;-143.60;95.13
68329;BME280;55182;56.864;60.554;2023-12-28T11:39:49;74684.22;;;-143.60;94.44
68329;BME280;55182;56.864;60.554;2023-12-28T11:42:18;74680.19;;;-143.60;93.82
68329;BME280;55182;56.864;60.554;2023-12-28T11:44:45;74676.19;;;-143.60;93.90
68329;BME280;55182;56.864;60.554;2023-12-28T11:47:17;74684.22;;;-143.60;93.81
68329;BME280;55182;56.864;60.554;2023-12-28T11:49:46;74672.16;;;-143.60;93.35
68329;BME280;55182;56.864;60.554;2023-12-28T11:52:21;74668.13;;;-143.60;93.36
68329;BME280;55182;56.864;60.554;2023-12-28T11:54:50;74668.13;;;-143.60;93.43
68329;BME280;55182;56.864;60.554;2023-12-28T11:57:15;74660.09;;;-143.60;93.50
68329;BME280;55182;56.864;60.554;2023-12-28T11:59:41;74652.06;;;-143.60;93.14
68329;BME280;55182;56.864;60.554;2023-12-28T12:02:07;74652.06;;;-143.60;93.39
68329;BME280;55182;56.864;60.554;2023-12-28T12:04:33;74650.06;;;-143.60;93.18
68329;BME280;55182;56.864;60.554;2023-12-28T12:07:01;74654.06;;;-143.60;93.21
68329;BME280;55182;56.864;60.554;2023-12-28T12:09:26;74656.09;;;-143.60;93.34
68329;BME280;55182;56.864;60.554;2023-12-28T12:11:52;74648.06;;;-143.60;93.50
68329;BME280;55182;56.864;60.554;2023-12-28T12:14:17;74640.03;;;-143.60;93.50
68329;BME280;55182;56.864;60.554;2023-12-28T12:16:43;74642.03;;;-143.60;93.70
68329;BME280;55182;56.864;60.554;2023-12-28T12:19:09;74636.00;;;-143.60;93.47
68329;BME280;55182;56.864;60.554;2023-12-28T12:21:35;74627.97;;;-143.60;93.56
68329;BME280;55182;56.864;60.554;2023-12-28T12:24:00;74617.91;;;-143.60;93.75
68329;BME280;55182;56.864;60.554;2023-12-28T12:26:27;74611.91;;;-143.60;93.80
68329;BME280;55182;56.864;60.554;2023-12-28T12:28:52;74619.94;;;-143.60;93.88
68329;BME280;55182;56.864;60.554;2023-12-28T12:31:18;74627.97;;;-143.60;93.86
68329;BME280;55182;56.864;60.554;2023-12-28T12:33:43;74636.00;;;-143.60;94.17